sensor_id;sensor_type;location;lat;lon;timestamp;temperature;humidity
4755;DHT22;2391;47.212;7.542;2024-02-04T00:00:44;6.60;99.40
4755;DHT22;2391;47.212;7.542;2024-02-04T00:03:10;6.60;99.40
4755;DHT22;2391;47.212;7.542;2024-02-04T00:05:36;6.50;99.50
4755;DHT22;2391;47.212;7.542;2024-02-04T00:08:02;6.40;99.50
4755;DHT22;2391;47.212;7.542;2024-02-04T00:10:28;6.40;99.60
4755;DHT22;2391;47.212;7.542;2024-02-04T00:12:54;6.40;99.60
4755;DHT22;2391;47.212;7.542;2024-02-04T00:15:20;6.30;99.70
4755;DHT22;2391;47.212;7.542;2024-02-04T00:17:46;6.30;99.70
4755;DHT22;2391;47.212;7.542;2024-02-04T00:20:12;6.30;99.60
4755;DHT22;2391;47.212;7.542;2024-02-04T00:22:37;6.40;99.60
4755;DHT22;2391;47.212;7.542;2024-02-04T00:25:03;6.40;99.50
4755;DHT22;2391;47.212;7.542;2024-02-04T00:27:34;6.40;99.50
4755;DHT22;2391;47.212;7.542;2024-02-04T00:30:00;6.40;99.40
4755;DHT22;2391;47.212;7.542;2024-02-04T00:32:26;6.40;99.50
4755;DHT22;2391;47.212;7.542;2024-02-04T00:34:52;6.30;99.70
4755;DHT22;2391;47.212;7.542;2024-02-04T00:37:19;6.30;99.50
4755;DHT22;2391;47.212;7.542;2024-02-04T00:39:45;6.30;99.40
4755;DHT22;2391;47.212;7.542;2024-02-04T00:42:11;6.30;99.40
4755;DHT22;2391;47.212;7.542;2024-02-04T00:44:37;6.30;99.40
4755;DHT22;2391;47.212;7.542;2024-02-04T00:47:03;6.20;99.40
4755;DHT22;2391;47.212;7.542;2024-02-04T00:49:29;6.20;99.50
4755;DHT22;2391;47.212;7.542;2024-02-04T00:51:55;6.20;99.50
4755;DHT22;2391;47.212;7.542;2024-02-04T00:54:20;6.20;99.70
4755;DHT22;2391;47.212;7.542;2024-02-04T00:56:46;6.10;99.50
4755;DHT22;2391;47.212;7.542;2024-02-04T00:59:12;6.10;99.50
4755;DHT22;2391;47.212;7.542;2024-02-04T01:01:38;6.10;99.60
4755;DHT22;2391;47.212;7.542;2024-02-04T01:04:04;6.20;99.40
4755;DHT22;2391;47.212;7.542;2024-02-04T01:06:30;6.20;99.40
4755;DHT22;2391;47.212;7.542;2024-02-04T01:08:56;6.30;99.30
4755;DHT22;2391;47.212;7.542;2024-02-04T01:11:22;6.20;99.20
4755;DHT22;2391;47.212;7.542;2024-02-04T01:13:49;6.20;99.30
4755;DHT22;2391;47.212;7.542;2024-02-04T01:16:14;6.20;99.30
4755;DHT22;2391;47.212;7.542;2024-02-04T01:18:40;6.10;99.30
4755;DHT22;2391;47.212;7.542;2024-02-04T01:21:06;6.00;99.20
4755;DHT22;2391;47.212;7.542;2024-02-04T01:23:34;6.00;99.40
4755;DHT22;2391;47.212;7.542;2024-02-04T01:26:00;6.00;99.40
4755;DHT22;2391;47.212;7.542;2024-02-04T01:28:25;6.00;99.40
4755;DHT22;2391;47.212;7.542;2024-02-04T01:30:51;6.10;99.30
4755;DHT22;2391;47.212;7.542;2024-02-04T01:33:17;6.10;99.20
4755;DHT22;2391;47.212;7.542;2024-02-04T01:35:43;6.20;99.10
4755;DHT22;2391;47.212;7.542;2024-02-04T01:38:09;6.20;99.00
4755;DHT22;2391;47.212;7.542;2024-02-04T01:40:35;6.20;98.90
4755;DHT22;2391;47.212;7.542;2024-02-04T01:43:01;6.10;98.90
4755;DHT22;2391;47.212;7.542;2024-02-04T01:45:27;6.10;98.90
4755;DHT22;2391;47.212;7.542;2024-02-04T01:47:53;6.10;98.70
4755;DHT22;2391;47.212;7.542;2024-02-04T01:50:20;6.10;98.70
4755;DHT22;2391;47.212;7.542;2024-02-04T01:52:47;6.00;98.80
4755;DHT22;2391;47.212;7.542;2024-02-04T01:55:13;5.90;98.90
4755;DHT22;2391;47.212;7.542;2024-02-04T01:57:39;5.80;99.00
4755;DHT22;2391;47.212;7.542;2024-02-04T02:00:07;5.80;99.00
4755;DHT22;2391;47.212;7.542;2024-02-04T02:02:38;5.80;98.90
4755;DHT22;2391;47.212;7.542;2024-02-04T02:05:05;5.80;98.90
4755;DHT22;2391;47.212;7.542;2024-02-04T02:07:31;5.80;98.90
4755;DHT22;2391;47.212;7.542;2024-02-04T02:09:56;5.70;98.90
4755;DHT22;2391;47.212;7.542;2024-02-04T02:12:25;5.60;99.10
4755;DHT22;2391;47.212;7.542;2024-02-04T02:14:58;5.60;99.20
4755;DHT22;2391;47.212;7.542;2024-02-04T02:17:24;5.60;99.20
4755;DHT22;2391;47.212;7.542;2024-02-04T02:25:09;5.60;99.20
4755;DHT22;2391;47.212;7.542;2024-02-04T02:27:50;5.60;99.10
4755;DHT22;2391;47.212;7.542;2024-02-04T02:30:17;5.60;99.10
4755;DHT22;2391;47.212;7.542;2024-02-04T02:32:44;5.70;99.10
4755;DHT22;2391;47.212;7.542;2024-02-04T02:35:12;5.70;99.00
4755;DHT22;2391;47.212;7.542;2024-02-04T02:43:09;5.50;99.00
4755;DHT22;2391;47.212;7.542;2024-02-04T02:45:39;5.40;99.10
4755;DHT22;2391;47.212;7.542;2024-02-04T02:48:06;5.40;99.00
4755;DHT22;2391;47.212;7.542;2024-02-04T02:50:39;5.30;99.10
4755;DHT22;2391;47.212;7.542;2024-02-04T02:53:03;5.30;99.30
4755;DHT22;2391;47.212;7.542;2024-02-04T02:55:29;5.40;99.10
4755;DHT22;2391;47.212;7.542;2024-02-04T02:57:54;5.50;99.00
4755;DHT22;2391;47.212;7.542;2024-02-04T03:00:20;5.50;98.90
4755;DHT22;2391;47.212;7.542;2024-02-04T03:02:46;5.50;98.80
4755;DHT22;2391;47.212;7.542;2024-02-04T03:05:15;5.60;98.80
4755;DHT22;2391;47.212;7.542;2024-02-04T03:07:41;5.50;98.90
4755;DHT22;2391;47.212;7.542;2024-02-04T03:10:08;5.50;98.80
4755;DHT22;2391;47.212;7.542;2024-02-04T03:12:34;5.40;98.90
4755;DHT22;2391;47.212;7.542;2024-02-04T03:15:00;5.30;99.00
4755;DHT22;2391;47.212;7.542;2024-02-04T03:17:26;5.30;99.00
4755;DHT22;2391;47.212;7.542;2024-02-04T03:19:52;5.30;99.10
4755;DHT22;2391;47.212;7.542;2024-02-04T03:22:20;5.20;99.10
4755;DHT22;2391;47.212;7.542;2024-02-04T03:24:47;5.20;99.10
4755;DHT22;2391;47.212;7.542;2024-02-04T03:27:13;5.20;99.00
4755;DHT22;2391;47.212;7.542;2024-02-04T03:29:39;5.20;98.90
4755;DHT22;2391;47.212;7.542;2024-02-04T03:32:05;5.10;98.90
4755;DHT22;2391;47.212;7.542;2024-02-04T03:34:31;4.80;99.00
4755;DHT22;2391;47.212;7.542;2024-02-04T03:36:57;4.70;99.40
4755;DHT22;2391;47.212;7.542;2024-02-04T03:39:23;4.60;99.60
4755;DHT22;2391;47.212;7.542;2024-02-04T03:41:48;4.50;99.60
4755;DHT22;2391;47.212;7.542;2024-02-04T03:44:14;4.50;99.80
4755;DHT22;2391;47.212;7.542;2024-02-04T03:46:40;4.70;99.80
4755;DHT22;2391;47.212;7.542;2024-02-04T03:49:07;4.70;99.60
4755;DHT22;2391;47.212;7.542;2024-02-04T03:51:33;4.80;99.60
4755;DHT22;2391;47.212;7.542;2024-02-04T03:53:59;4.90;99.40
4755;DHT22;2391;47.212;7.542;2024-02-04T03:56:25;5.00;99.30
4755;DHT22;2391;47.212;7.542;2024-02-04T03:58:51;5.00;99.10
4755;DHT22;2391;47.212;7.542;2024-02-04T04:01:16;5.10;99.10
4755;DHT22;2391;47.212;7.542;2024-02-04T04:03:43;5.10;99.00
4755;DHT22;2391;47.212;7.542;2024-02-04T04:06:10;5.00;98.90
4755;DHT22;2391;47.212;7.542;2024-02-04T04:08:36;5.00;98.90
4755;DHT22;2391;47.212;7.542;2024-02-04T04:11:02;5.10;98.90
4755;DHT22;2391;47.212;7.542;2024-02-04T04:13:29;5.10;98.90
4755;DHT22;2391;47.212;7.542;2024-02-04T04:15:54;5.10;98.80
4755;DHT22;2391;47.212;7.542;2024-02-04T04:18:20;5.10;98.80
4755;DHT22;2391;47.212;7.542;2024-02-04T04:20:46;5.00;98.80
4755;DHT22;2391;47.212;7.542;2024-02-04T04:23:12;5.00;98.80
4755;DHT22;2391;47.212;7.542;2024-02-04T04:25:38;5.00;98.80
4755;DHT22;2391;47.212;7.542;2024-02-04T04:28:04;5.00;98.80
4755;DHT22;2391;47.212;7.542;2024-02-04T04:30:30;5.00;98.90
4755;DHT22;2391;47.212;7.542;2024-02-04T04:32:56;4.90;98.90
4755;DHT22;2391;47.212;7.542;2024-02-04T04:35:23;4.80;99.20
4755;DHT22;2391;47.212;7.542;2024-02-04T04:37:49;4.70;99.10
4755;DHT22;2391;47.212;7.542;2024-02-04T04:40:15;4.70;99.00
4755;DHT22;2391;47.212;7.542;2024-02-04T04:42:41;4.70;99.00
4755;DHT22;2391;47.212;7.542;2024-02-04T04:45:07;4.70;99.10
4755;DHT22;2391;47.212;7.542;2024-02-04T04:47:35;4.70;98.90
4755;DHT22;2391;47.212;7.542;2024-02-04T04:50:01;4.70;99.00
4755;DHT22;2391;47.212;7.542;2024-02-04T04:52:27;4.70;99.00
4755;DHT22;2391;47.212;7.542;2024-02-04T04:54:53;4.70;99.00
4755;DHT22;2391;47.212;7.542;2024-02-04T04:57:18;4.70;98.90
4755;DHT22;2391;47.212;7.542;2024-02-04T04:59:44;4.70;98.90
4755;DHT22;2391;47.212;7.542;2024-02-04T05:02:10;4.80;98.80
4755;DHT22;2391;47.212;7.542;2024-02-04T05:04:36;4.80;98.80
4755;DHT22;2391;47.212;7.542;2024-02-04T05:07:02;4.80;98.60
4755;DHT22;2391;47.212;7.542;2024-02-04T05:09:28;4.80;98.70
4755;DHT22;2391;47.212;7.542;2024-02-04T05:11:54;4.80;98.60
4755;DHT22;2391;47.212;7.542;2024-02-04T05:14:20;4.70;98.60
4755;DHT22;2391;47.212;7.542;2024-02-04T05:16:47;4.70;98.80
4755;DHT22;2391;47.212;7.542;2024-02-04T05:19:13;4.70;98.80
4755;DHT22;2391;47.212;7.542;2024-02-04T05:21:39;4.70;98.80
4755;DHT22;2391;47.212;7.542;2024-02-04T05:24:06;4.70;98.70
4755;DHT22;2391;47.212;7.542;2024-02-04T05:26:32;4.70;98.70
4755;DHT22;2391;47.212;7.542;2024-02-04T05:28:57;4.70;99.00
4755;DHT22;2391;47.212;7.542;2024-02-04T05:31:23;4.70;98.60
4755;DHT22;2391;47.212;7.542;2024-02-04T05:33:51;4.80;98.70
4755;DHT22;2391;47.212;7.542;2024-02-04T05:36:17;4.80;98.60
4755;DHT22;2391;47.212;7.542;2024-02-04T05:38:45;4.70;98.70
4755;DHT22;2391;47.212;7.542;2024-02-04T05:41:11;4.60;98.90
4755;DHT22;2391;47.212;7.542;2024-02-04T05:43:38;4.50;99.00
4755;DHT22;2391;47.212;7.542;2024-02-04T05:46:04;4.40;99.10
4755;DHT22;2391;47.212;7.542;2024-02-04T05:48:30;4.40;99.20
4755;DHT22;2391;47.212;7.542;2024-02-04T05:50:56;4.30;99.20
4755;DHT22;2391;47.212;7.542;2024-02-04T05:53:22;4.40;99.30
4755;DHT22;2391;47.212;7.542;2024-02-04T05:55:47;4.40;99.20
4755;DHT22;2391;47.212;7.542;2024-02-04T05:58:13;4.50;99.10
4755;DHT22;2391;47.212;7.542;2024-02-04T06:00:40;4.50;99.00
4755;DHT22;2391;47.212;7.542;2024-02-04T06:03:06;4.60;98.90
4755;DHT22;2391;47.212;7.542;2024-02-04T06:05:32;4.60;98.80
4755;DHT22;2391;47.212;7.542;2024-02-04T06:07:58;4.60;98.70
4755;DHT22;2391;47.212;7.542;2024-02-04T06:10:23;4.70;98.70
4755;DHT22;2391;47.212;7.542;2024-02-04T06:12:49;4.70;98.60
4755;DHT22;2391;47.212;7.542;2024-02-04T06:15:15;4.70;98.60
4755;DHT22;2391;47.212;7.542;2024-02-04T06:17:42;4.60;98.50
4755;DHT22;2391;47.212;7.542;2024-02-04T06:20:08;4.60;98.50
4755;DHT22;2391;47.212;7.542;2024-02-04T06:22:35;4.50;98.60
4755;DHT22;2391;47.212;7.542;2024-02-04T06:25:06;4.40;98.50
4755;DHT22;2391;47.212;7.542;2024-02-04T06:27:30;4.40;98.60
4755;DHT22;2391;47.212;7.542;2024-02-04T06:29:56;4.40;98.50
4755;DHT22;2391;47.212;7.542;2024-02-04T06:32:22;4.40;98.50
4755;DHT22;2391;47.212;7.542;2024-02-04T06:34:49;4.40;98.50
4755;DHT22;2391;47.212;7.542;2024-02-04T06:37:16;4.50;98.50
4755;DHT22;2391;47.212;7.542;2024-02-04T06:39:42;4.50;98.50
4755;DHT22;2391;47.212;7.542;2024-02-04T06:42:08;4.50;98.40
4755;DHT22;2391;47.212;7.542;2024-02-04T06:44:34;4.50;98.40
4755;DHT22;2391;47.212;7.542;2024-02-04T06:47:00;4.40;98.50
4755;DHT22;2391;47.212;7.542;2024-02-04T06:49:25;4.40;98.50
4755;DHT22;2391;47.212;7.542;2024-02-04T06:51:52;4.50;98.60
4755;DHT22;2391;47.212;7.542;2024-02-04T06:54:20;4.40;98.50
4755;DHT22;2391;47.212;7.542;2024-02-04T06:56:45;4.30;98.70
4755;DHT22;2391;47.212;7.542;2024-02-04T06:59:11;4.20;98.80
4755;DHT22;2391;47.212;7.542;2024-02-04T07:01:37;4.10;99.00
4755;DHT22;2391;47.212;7.542;2024-02-04T07:04:03;4.10;99.10
4755;DHT22;2391;47.212;7.542;2024-02-04T07:06:31;4.00;99.20
4755;DHT22;2391;47.212;7.542;2024-02-04T07:08:57;3.90;99.30
4755;DHT22;2391;47.212;7.542;2024-02-04T07:11:24;3.90;99.50
4755;DHT22;2391;47.212;7.542;2024-02-04T07:13:50;3.80;99.60
4755;DHT22;2391;47.212;7.542;2024-02-04T07:16:18;3.70;99.70
4755;DHT22;2391;47.212;7.542;2024-02-04T07:18:43;3.60;99.90
4755;DHT22;2391;47.212;7.542;2024-02-04T07:21:09;3.50;99.90
4755;DHT22;2391;47.212;7.542;2024-02-04T07:23:35;3.50;99.90
4755;DHT22;2391;47.212;7.542;2024-02-04T07:26:01;3.60;99.90
4755;DHT22;2391;47.212;7.542;2024-02-04T07:28:26;3.70;99.90
4755;DHT22;2391;47.212;7.542;2024-02-04T07:30:52;3.80;99.90
4755;DHT22;2391;47.212;7.542;2024-02-04T07:33:18;3.90;99.90
4755;DHT22;2391;47.212;7.542;2024-02-04T07:35:43;3.90;99.90
4755;DHT22;2391;47.212;7.542;2024-02-04T07:38:09;4.00;99.90
4755;DHT22;2391;47.212;7.542;2024-02-04T07:40:35;4.00;99.90
4755;DHT22;2391;47.212;7.542;2024-02-04T07:43:01;3.90;99.90
4755;DHT22;2391;47.212;7.542;2024-02-04T07:45:26;4.00;99.90
4755;DHT22;2391;47.212;7.542;2024-02-04T07:47:52;4.00;99.90
4755;DHT22;2391;47.212;7.542;2024-02-04T07:50:18;4.10;99.90
4755;DHT22;2391;47.212;7.542;2024-02-04T07:52:44;4.10;99.90
4755;DHT22;2391;47.212;7.542;2024-02-04T07:55:10;4.10;99.90
4755;DHT22;2391;47.212;7.542;2024-02-04T07:57:35;4.20;99.90
4755;DHT22;2391;47.212;7.542;2024-02-04T08:00:01;4.20;99.90
4755;DHT22;2391;47.212;7.542;2024-02-04T08:02:29;4.30;99.90
4755;DHT22;2391;47.212;7.542;2024-02-04T08:04:55;4.30;99.90
4755;DHT22;2391;47.212;7.542;2024-02-04T08:07:20;4.40;99.90
4755;DHT22;2391;47.212;7.542;2024-02-04T08:09:46;4.40;99.90
4755;DHT22;2391;47.212;7.542;2024-02-04T08:12:12;4.50;99.90
4755;DHT22;2391;47.212;7.542;2024-02-04T08:14:38;4.50;99.90
4755;DHT22;2391;47.212;7.542;2024-02-04T08:17:04;4.50;99.90
4755;DHT22;2391;47.212;7.542;2024-02-04T08:19:30;4.60;99.90
4755;DHT22;2391;47.212;7.542;2024-02-04T08:21:55;4.60;99.90
4755;DHT22;2391;47.212;7.542;2024-02-04T08:24:21;4.60;99.90
4755;DHT22;2391;47.212;7.542;2024-02-04T08:26:47;4.60;99.90
4755;DHT22;2391;47.212;7.542;2024-02-04T08:29:13;4.50;99.90
4755;DHT22;2391;47.212;7.542;2024-02-04T08:31:39;4.50;99.90
4755;DHT22;2391;47.212;7.542;2024-02-04T08:34:05;4.40;99.90
4755;DHT22;2391;47.212;7.542;2024-02-04T08:36:32;4.40;99.90
4755;DHT22;2391;47.212;7.542;2024-02-04T08:38:58;4.30;99.90
4755;DHT22;2391;47.212;7.542;2024-02-04T08:41:24;4.30;99.90
4755;DHT22;2391;47.212;7.542;2024-02-04T08:43:49;4.40;99.90
4755;DHT22;2391;47.212;7.542;2024-02-04T08:46:15;4.40;99.90
4755;DHT22;2391;47.212;7.542;2024-02-04T08:48:41;4.50;99.90
4755;DHT22;2391;47.212;7.542;2024-02-04T08:51:11;4.50;99.90
4755;DHT22;2391;47.212;7.542;2024-02-04T08:53:39;4.50;99.90
4755;DHT22;2391;47.212;7.542;2024-02-04T08:56:06;4.60;99.90
4755;DHT22;2391;47.212;7.542;2024-02-04T08:58:32;4.60;99.90
4755;DHT22;2391;47.212;7.542;2024-02-04T09:00:57;4.60;99.90
4755;DHT22;2391;47.212;7.542;2024-02-04T09:03:24;4.50;99.90
4755;DHT22;2391;47.212;7.542;2024-02-04T09:05:50;4.50;99.90
4755;DHT22;2391;47.212;7.542;2024-02-04T09:08:15;4.40;99.90
4755;DHT22;2391;47.212;7.542;2024-02-04T09:10:41;4.40;99.90
4755;DHT22;2391;47.212;7.542;2024-02-04T09:13:07;4.40;99.90
4755;DHT22;2391;47.212;7.542;2024-02-04T09:15:33;4.20;99.90
4755;DHT22;2391;47.212;7.542;2024-02-04T09:17:58;4.10;99.90
4755;DHT22;2391;47.212;7.542;2024-02-04T09:20:24;4.10;99.90
4755;DHT22;2391;47.212;7.542;2024-02-04T09:22:50;4.00;99.90
4755;DHT22;2391;47.212;7.542;2024-02-04T09:25:16;4.00;99.90
4755;DHT22;2391;47.212;7.542;2024-02-04T09:27:41;4.00;99.90
4755;DHT22;2391;47.212;7.542;2024-02-04T09:30:08;4.10;99.90
4755;DHT22;2391;47.212;7.542;2024-02-04T09:32:33;4.10;99.90
4755;DHT22;2391;47.212;7.542;2024-02-04T09:34:59;4.10;99.90
4755;DHT22;2391;47.212;7.542;2024-02-04T09:37:25;4.00;99.90
4755;DHT22;2391;47.212;7.542;2024-02-04T09:39:51;4.10;99.90
4755;DHT22;2391;47.212;7.542;2024-02-04T09:42:19;4.10;99.90
4755;DHT22;2391;47.212;7.542;2024-02-04T09:44:50;4.10;99.90
4755;DHT22;2391;47.212;7.542;2024-02-04T09:47:16;4.20;99.90
4755;DHT22;2391;47.212;7.542;2024-02-04T09:49:43;4.20;99.90
4755;DHT22;2391;47.212;7.542;2024-02-04T09:52:09;4.30;99.90
4755;DHT22;2391;47.212;7.542;2024-02-04T09:57:10;4.50;99.90
4755;DHT22;2391;47.212;7.542;2024-02-04T09:59:36;4.50;99.90
4755;DHT22;2391;47.212;7.542;2024-02-04T10:02:06;4.60;99.90
4755;DHT22;2391;47.212;7.542;2024-02-04T10:04:33;4.60;99.90
4755;DHT22;2391;47.212;7.542;2024-02-04T10:06:59;4.70;99.90
4755;DHT22;2391;47.212;7.542;2024-02-04T10:09:25;4.90;99.90
4755;DHT22;2391;47.212;7.542;2024-02-04T10:11:51;4.90;99.90
4755;DHT22;2391;47.212;7.542;2024-02-04T10:14:17;5.10;99.90
4755;DHT22;2391;47.212;7.542;2024-02-04T10:16:44;5.10;99.90
4755;DHT22;2391;47.212;7.542;2024-02-04T10:19:11;5.20;99.90
4755;DHT22;2391;47.212;7.542;2024-02-04T10:21:37;5.20;99.90
4755;DHT22;2391;47.212;7.542;2024-02-04T10:24:03;5.30;99.90
4755;DHT22;2391;47.212;7.542;2024-02-04T10:26:29;5.20;99.90
4755;DHT22;2391;47.212;7.542;2024-02-04T10:29:00;5.20;99.90
4755;DHT22;2391;47.212;7.542;2024-02-04T10:31:26;5.20;99.90
4755;DHT22;2391;47.212;7.542;2024-02-04T10:33:52;5.20;99.90
4755;DHT22;2391;47.212;7.542;2024-02-04T10:36:20;5.10;99.90
4755;DHT22;2391;47.212;7.542;2024-02-04T10:38:46;5.10;99.90
4755;DHT22;2391;47.212;7.542;2024-02-04T10:41:16;5.10;99.90
4755;DHT22;2391;47.212;7.542;2024-02-04T10:43:44;5.00;99.90
4755;DHT22;2391;47.212;7.542;2024-02-04T10:46:22;4.90;99.90
4755;DHT22;2391;47.212;7.542;2024-02-04T10:48:57;4.90;99.90
4755;DHT22;2391;47.212;7.542;2024-02-04T10:51:25;5.10;99.90
4755;DHT22;2391;47.212;7.542;2024-02-04T10:53:56;5.10;99.90
4755;DHT22;2391;47.212;7.542;2024-02-04T10:58:55;5.10;99.90
4755;DHT22;2391;47.212;7.542;2024-02-04T11:01:22;5.30;99.90
4755;DHT22;2391;47.212;7.542;2024-02-04T11:03:50;5.30;99.90
4755;DHT22;2391;47.212;7.542;2024-02-04T11:06:17;5.40;99.90
4755;DHT22;2391;47.212;7.542;2024-02-04T11:08:44;5.50;99.90
4755;DHT22;2391;47.212;7.542;2024-02-04T11:11:10;5.60;99.90
4755;DHT22;2391;47.212;7.542;2024-02-04T11:13:37;5.60;99.90
4755;DHT22;2391;47.212;7.542;2024-02-04T11:16:06;5.70;99.90
4755;DHT22;2391;47.212;7.542;2024-02-04T11:21:25;5.80;99.90
4755;DHT22;2391;47.212;7.542;2024-02-04T11:24:08;5.80;99.90
4755;DHT22;2391;47.212;7.542;2024-02-04T11:26:32;5.80;99.90
4755;DHT22;2391;47.212;7.542;2024-02-04T11:28:58;5.90;99.90
4755;DHT22;2391;47.212;7.542;2024-02-04T11:31:28;6.00;99.90
4755;DHT22;2391;47.212;7.542;2024-02-04T11:33:54;6.00;99.90
4755;DHT22;2391;47.212;7.542;2024-02-04T11:36:25;6.10;99.90
4755;DHT22;2391;47.212;7.542;2024-02-04T11:38:51;6.10;99.90
4755;DHT22;2391;47.212;7.542;2024-02-04T11:41:24;6.10;99.90
4755;DHT22;2391;47.212;7.542;2024-02-04T11:43:52;6.10;99.90
4755;DHT22;2391;47.212;7.542;2024-02-04T11:46:19;6.10;99.90
4755;DHT22;2391;47.212;7.542;2024-02-04T11:48:53;6.20;99.90
4755;DHT22;2391;47.212;7.542;2024-02-04T11:51:25;6.20;99.90
4755;DHT22;2391;47.212;7.542;2024-02-04T11:53:50;6.20;99.90
4755;DHT22;2391;47.212;7.542;2024-02-04T11:56:18;6.30;99.90
4755;DHT22;2391;47.212;7.542;2024-02-04T11:58:45;6.30;99.90
4755;DHT22;2391;47.212;7.542;2024-02-04T12:01:11;6.40;99.90
4755;DHT22;2391;47.212;7.542;2024-02-04T12:03:37;6.40;99.90
4755;DHT22;2391;47.212;7.542;2024-02-04T12:06:03;6.50;99.90
4755;DHT22;2391;47.212;7.542;2024-02-04T12:08:34;6.50;99.90
4755;DHT22;2391;47.212;7.542;2024-02-04T12:11:01;6.60;99.90
4755;DHT22;2391;47.212;7.542;2024-02-04T12:13:30;6.70;99.90
4755;DHT22;2391;47.212;7.542;2024-02-04T12:15:57;6.80;99.90
4755;DHT22;2391;47.212;7.542;2024-02-04T12:18:23;6.80;99.90
4755;DHT22;2391;47.212;7.542;2024-02-04T12:20:49;6.90;99.90
4755;DHT22;2391;47.212;7.542;2024-02-04T12:23:16;6.90;99.90
4755;DHT22;2391;47.212;7.542;2024-02-04T12:25:42;7.00;99.90
4755;DHT22;2391;47.212;7.542;2024-02-04T12:28:08;7.10;99.90
4755;DHT22;2391;47.212;7.542;2024-02-04T12:30:34;7.20;99.90
4755;DHT22;2391;47.212;7.542;2024-02-04T12:33:02;7.30;99.90
4755;DHT22;2391;47.212;7.542;2024-02-04T12:35:30;7.40;99.90
4755;DHT22;2391;47.212;7.542;2024-02-04T12:37:57;7.50;99.90
4755;DHT22;2391;47.212;7.542;2024-02-04T12:43:01;7.70;99.90
4755;DHT22;2391;47.212;7.542;2024-02-04T12:45:29;7.80;99.90
4755;DHT22;2391;47.212;7.542;2024-02-04T12:47:56;8.00;99.90
4755;DHT22;2391;47.212;7.542;2024-02-04T12:50:23;8.10;99.90
4755;DHT22;2391;47.212;7.542;2024-02-04T12:53:03;8.30;99.90
4755;DHT22;2391;47.212;7.542;2024-02-04T12:55:33;8.50;99.90
4755;DHT22;2391;47.212;7.542;2024-02-04T12:58:07;8.70;99.90
4755;DHT22;2391;47.212;7.542;2024-02-04T13:00:35;8.90;99.90
4755;DHT22;2391;47.212;7.542;2024-02-04T13:03:06;9.00;99.90
4755;DHT22;2391;47.212;7.542;2024-02-04T13:05:29;9.10;99.90
4755;DHT22;2391;47.212;7.542;2024-02-04T13:07:58;9.20;99.90
4755;DHT22;2391;47.212;7.542;2024-02-04T13:10:27;9.40;99.90
4755;DHT22;2391;47.212;7.542;2024-02-04T13:13:03;9.60;99.90
4755;DHT22;2391;47.212;7.542;2024-02-04T13:15:33;9.60;99.90
4755;DHT22;2391;47.212;7.542;2024-02-04T13:17:59;9.70;99.90
4755;DHT22;2391;47.212;7.542;2024-02-04T13:20:26;9.80;99.90
4755;DHT22;2391;47.212;7.542;2024-02-04T13:22:51;9.90;99.90
4755;DHT22;2391;47.212;7.542;2024-02-04T13:25:21;10.00;99.90
4755;DHT22;2391;47.212;7.542;2024-02-04T13:27:50;10.10;99.90
4755;DHT22;2391;47.212;7.542;2024-02-04T13:30:17;10.20;99.90
4755;DHT22;2391;47.212;7.542;2024-02-04T13:32:43;10.30;99.90
4755;DHT22;2391;47.212;7.542;2024-02-04T13:35:09;10.30;99.90
4755;DHT22;2391;47.212;7.542;2024-02-04T13:37:36;10.30;99.80
4755;DHT22;2391;47.212;7.542;2024-02-04T13:40:03;10.40;99.70
4755;DHT22;2391;47.212;7.542;2024-02-04T13:42:31;10.50;99.80
4755;DHT22;2391;47.212;7.542;2024-02-04T13:44:59;10.60;99.10
4755;DHT22;2391;47.212;7.542;2024-02-04T13:47:26;10.70;99.10
4755;DHT22;2391;47.212;7.542;2024-02-04T13:49:52;10.70;99.10
4755;DHT22;2391;47.212;7.542;2024-02-04T13:52:17;10.70;99.00
4755;DHT22;2391;47.212;7.542;2024-02-04T13:54:43;10.70;99.30
4755;DHT22;2391;47.212;7.542;2024-02-04T13:57:09;10.70;99.20
4755;DHT22;2391;47.212;7.542;2024-02-04T13:59:35;10.80;99.20
4755;DHT22;2391;47.212;7.542;2024-02-04T14:02:01;10.80;99.10
4755;DHT22;2391;47.212;7.542;2024-02-04T14:04:27;10.80;99.10
4755;DHT22;2391;47.212;7.542;2024-02-04T14:06:53;11.00;98.90
4755;DHT22;2391;47.212;7.542;2024-02-04T14:09:19;11.10;99.00
4755;DHT22;2391;47.212;7.542;2024-02-04T14:11:44;11.20;98.80
4755;DHT22;2391;47.212;7.542;2024-02-04T14:14:10;11.20;98.80
4755;DHT22;2391;47.212;7.542;2024-02-04T14:16:36;11.30;98.60
4755;DHT22;2391;47.212;7.542;2024-02-04T14:19:01;11.30;98.40
4755;DHT22;2391;47.212;7.542;2024-02-04T14:21:27;11.30;98.50
4755;DHT22;2391;47.212;7.542;2024-02-04T14:23:53;11.30;98.40
4755;DHT22;2391;47.212;7.542;2024-02-04T14:26:20;11.30;98.30
4755;DHT22;2391;47.212;7.542;2024-02-04T14:28:46;11.30;98.20
4755;DHT22;2391;47.212;7.542;2024-02-04T14:31:11;11.40;98.00
4755;DHT22;2391;47.212;7.542;2024-02-04T14:33:37;11.40;97.90
4755;DHT22;2391;47.212;7.542;2024-02-04T14:36:04;11.50;97.90
4755;DHT22;2391;47.212;7.542;2024-02-04T14:38:30;11.50;97.70
4755;DHT22;2391;47.212;7.542;2024-02-04T14:40:58;11.50;97.60
4755;DHT22;2391;47.212;7.542;2024-02-04T14:43:27;11.50;97.40
4755;DHT22;2391;47.212;7.542;2024-02-04T14:45:53;11.50;97.50
4755;DHT22;2391;47.212;7.542;2024-02-04T14:48:19;11.50;97.40
4755;DHT22;2391;47.212;7.542;2024-02-04T14:50:48;11.50;97.40
4755;DHT22;2391;47.212;7.542;2024-02-04T14:53:13;11.50;97.40
4755;DHT22;2391;47.212;7.542;2024-02-04T14:55:39;11.50;97.30
4755;DHT22;2391;47.212;7.542;2024-02-04T14:58:05;11.50;97.20
4755;DHT22;2391;47.212;7.542;2024-02-04T15:00:31;11.60;97.20
4755;DHT22;2391;47.212;7.542;2024-02-04T15:02:58;11.60;97.10
4755;DHT22;2391;47.212;7.542;2024-02-04T15:05:25;11.70;97.20
4755;DHT22;2391;47.212;7.542;2024-02-04T15:07:51;11.70;97.00
4755;DHT22;2391;47.212;7.542;2024-02-04T15:10:19;11.70;97.30
4755;DHT22;2391;47.212;7.542;2024-02-04T15:12:45;11.70;97.10
4755;DHT22;2391;47.212;7.542;2024-02-04T15:15:12;11.80;97.60
4755;DHT22;2391;47.212;7.542;2024-02-04T15:17:38;11.80;97.70
4755;DHT22;2391;47.212;7.542;2024-02-04T15:20:05;11.90;97.70
4755;DHT22;2391;47.212;7.542;2024-02-04T15:22:32;12.00;97.50
4755;DHT22;2391;47.212;7.542;2024-02-04T15:24:58;12.10;97.40
4755;DHT22;2391;47.212;7.542;2024-02-04T15:27:26;12.20;97.00
4755;DHT22;2391;47.212;7.542;2024-02-04T15:29:55;12.30;97.10
4755;DHT22;2391;47.212;7.542;2024-02-04T15:32:22;12.30;97.20
4755;DHT22;2391;47.212;7.542;2024-02-04T15:34:48;12.40;97.30
4755;DHT22;2391;47.212;7.542;2024-02-04T15:37:16;12.40;96.70
4755;DHT22;2391;47.212;7.542;2024-02-04T15:39:42;12.40;96.50
4755;DHT22;2391;47.212;7.542;2024-02-04T15:42:09;12.20;96.60
4755;DHT22;2391;47.212;7.542;2024-02-04T15:44:34;12.10;96.80
4755;DHT22;2391;47.212;7.542;2024-02-04T15:47:06;12.00;96.80
4755;DHT22;2391;47.212;7.542;2024-02-04T15:49:34;12.00;97.00
4755;DHT22;2391;47.212;7.542;2024-02-04T15:52:02;12.00;97.10
4755;DHT22;2391;47.212;7.542;2024-02-04T15:54:28;12.00;97.20
4755;DHT22;2391;47.212;7.542;2024-02-04T15:56:55;12.20;97.20
4755;DHT22;2391;47.212;7.542;2024-02-04T15:59:27;12.20;97.10
4755;DHT22;2391;47.212;7.542;2024-02-04T16:01:54;12.30;97.10
4755;DHT22;2391;47.212;7.542;2024-02-04T16:04:21;12.40;97.20
4755;DHT22;2391;47.212;7.542;2024-02-04T16:06:47;12.30;97.00
4755;DHT22;2391;47.212;7.542;2024-02-04T16:09:13;12.30;97.10
4755;DHT22;2391;47.212;7.542;2024-02-04T16:12:04;12.30;97.00
4755;DHT22;2391;47.212;7.542;2024-02-04T16:14:34;12.30;97.10
4755;DHT22;2391;47.212;7.542;2024-02-04T16:17:01;12.30;97.30
4755;DHT22;2391;47.212;7.542;2024-02-04T16:19:32;12.20;97.40
4755;DHT22;2391;47.212;7.542;2024-02-04T16:21:58;12.20;97.30
4755;DHT22;2391;47.212;7.542;2024-02-04T16:24:24;12.30;97.20
4755;DHT22;2391;47.212;7.542;2024-02-04T16:26:49;12.30;97.20
4755;DHT22;2391;47.212;7.542;2024-02-04T16:29:15;12.30;97.10
4755;DHT22;2391;47.212;7.542;2024-02-04T16:31:41;12.30;97.20